sensor_id;sensor_type;location;lat;lon;timestamp;pressure;altitude;pressure_sealevel;temperature;humidity
61324;BME280;47203;48.428;11.974;2023-02-01T00:00:50;97298.34;;;9.23;44.58
61324;BME280;47203;48.428;11.974;2023-02-01T00:02:54;97290.47;;;9.23;44.29
61324;BME280;47203;48.428;11.974;2023-02-01T00:04:59;97294.03;;;9.17;44.67
61324;BME280;47203;48.428;11.974;2023-02-01T00:07:04;97295.34;;;9.14;44.57
61324;BME280;47203;48.428;11.974;2023-02-01T00:09:09;97296.50;;;9.06;44.91
61324;BME280;47203;48.428;11.974;2023-02-01T00:13:38;97284.03;;;8.97;44.84
61324;BME280;47203;48.428;11.974;2023-02-01T00:15:43;97280.38;;;8.98;45.00
61324;BME280;47203;48.428;11.974;2023-02-01T00:17:47;97294.78;;;8.95;45.22
61324;BME280;47203;48.428;11.974;2023-02-01T00:19:52;97283.72;;;8.93;45.03
61324;BME280;47203;48.428;11.974;2023-02-01T00:21:57;97281.66;;;8.95;45.43
61324;BME280;47203;48.428;11.974;2023-02-01T00:24:02;97274.56;;;8.96;45.19
61324;BME280;47203;48.428;11.974;2023-02-01T00:26:13;97274.56;;;8.96;45.44
61324;BME280;47203;48.428;11.974;2023-02-01T00:28:21;97271.16;;;8.95;45.31
61324;BME280;47203;48.428;11.974;2023-02-01T00:30:25;97251.44;;;8.93;45.31
61324;BME280;47203;48.428;11.974;2023-02-01T00:32:30;97251.34;;;8.87;45.55
61324;BME280;47203;48.428;11.974;2023-02-01T00:34:35;97245.31;;;8.87;45.58
61324;BME280;47203;48.428;11.974;2023-02-01T00:36:40;97243.94;;;8.84;45.31
61324;BME280;47203;48.428;11.974;2023-02-01T00:38:45;97253.66;;;8.84;45.71
61324;BME280;47203;48.428;11.974;2023-02-01T00:40:50;97245.22;;;8.82;45.63
61324;BME280;47203;48.428;11.974;2023-02-01T00:42:54;97243.63;;;8.81;45.87
61324;BME280;47203;48.428;11.974;2023-02-01T00:45:02;97240.78;;;8.82;45.76
61324;BME280;47203;48.428;11.974;2023-02-01T00:47:07;97247.69;;;8.88;45.68
61324;BME280;47203;48.428;11.974;2023-02-01T00:49:12;97245.06;;;8.88;45.59
61324;BME280;47203;48.428;11.974;2023-02-01T00:51:19;97241.94;;;8.91;45.67
61324;BME280;47203;48.428;11.974;2023-02-01T00:53:24;97250.16;;;8.95;45.61
61324;BME280;47203;48.428;11.974;2023-02-01T00:55:28;97247.78;;;8.94;45.52
61324;BME280;47203;48.428;11.974;2023-02-01T00:57:33;97246.41;;;8.91;45.47
61324;BME280;47203;48.428;11.974;2023-02-01T00:59:38;97240.91;;;8.93;45.50
61324;BME280;47203;48.428;11.974;2023-02-01T01:01:45;97225.72;;;8.95;45.55
61324;BME280;47203;48.428;11.974;2023-02-01T01:03:51;97238.59;;;8.96;45.30
61324;BME280;47203;48.428;11.974;2023-02-01T01:05:57;97234.94;;;8.97;45.50
61324;BME280;47203;48.428;11.974;2023-02-01T01:08:02;97244.09;;;8.95;45.34
61324;BME280;47203;48.428;11.974;2023-02-01T01:10:07;97249.09;;;8.96;45.34
61324;BME280;47203;48.428;11.974;2023-02-01T01:12:12;97249.69;;;8.98;45.52
61324;BME280;47203;48.428;11.974;2023-02-01T01:14:17;97245.22;;;8.99;45.66
61324;BME280;47203;48.428;11.974;2023-02-01T01:16:23;97250.22;;;9.00;45.58
61324;BME280;47203;48.428;11.974;2023-02-01T01:18:32;97251.72;;;8.96;45.58
61324;BME280;47203;48.428;11.974;2023-02-01T01:20:39;97230.97;;;8.95;45.67
61324;BME280;47203;48.428;11.974;2023-02-01T01:22:44;97245.16;;;8.94;45.38
61324;BME280;47203;48.428;11.974;2023-02-01T01:24:49;97234.84;;;8.92;45.72
61324;BME280;47203;48.428;11.974;2023-02-01T01:26:54;97235.69;;;8.93;45.72
61324;BME280;47203;48.428;11.974;2023-02-01T01:28:59;97246.97;;;8.93;45.67
61324;BME280;47203;48.428;11.974;2023-02-01T01:31:07;97246.41;;;8.91;45.61
61324;BME280;47203;48.428;11.974;2023-02-01T01:33:13;97244.03;;;8.89;45.91
61324;BME280;47203;48.428;11.974;2023-02-01T01:35:20;97249.03;;;8.91;45.56
61324;BME280;47203;48.428;11.974;2023-02-01T01:37:25;97232.22;;;8.92;45.81
61324;BME280;47203;48.428;11.974;2023-02-01T01:39:29;97232.81;;;8.94;45.89
61324;BME280;47203;48.428;11.974;2023-02-01T01:41:34;97226.78;;;8.94;45.66
61324;BME280;47203;48.428;11.974;2023-02-01T01:43:51;97233.59;;;8.95;45.82
61324;BME280;47203;48.428;11.974;2023-02-01T01:45:58;97228.03;;;8.91;46.04
61324;BME280;47203;48.428;11.974;2023-02-01T01:48:07;97215.94;;;8.90;45.79
61324;BME280;47203;48.428;11.974;2023-02-01T01:50:15;97219.97;;;8.98;45.73
61324;BME280;47203;48.428;11.974;2023-02-01T01:52:24;97222.13;;;9.01;45.87
61324;BME280;47203;48.428;11.974;2023-02-01T01:54:31;97227.69;;;9.04;45.88
61324;BME280;47203;48.428;11.974;2023-02-01T01:56:37;97224.03;;;9.05;45.59
61324;BME280;47203;48.428;11.974;2023-02-01T01:58:43;97223.72;;;9.02;45.73
61324;BME280;47203;48.428;11.974;2023-02-01T02:00:47;97212.69;;;9.00;46.10
61324;BME280;47203;48.428;11.974;2023-02-01T02:03:05;97216.03;;;8.95;46.27
61324;BME280;47203;48.428;11.974;2023-02-01T02:05:12;97218.41;;;8.97;46.05
61324;BME280;47203;48.428;11.974;2023-02-01T02:07:21;97222.84;;;8.96;46.29
61324;BME280;47203;48.428;11.974;2023-02-01T02:09:30;97220.22;;;8.96;46.26
61324;BME280;47203;48.428;11.974;2023-02-01T02:11:35;97212.59;;;8.95;46.28
61324;BME280;47203;48.428;11.974;2023-02-01T02:13:42;97205.97;;;8.92;46.36
61324;BME280;47203;48.428;11.974;2023-02-01T02:15:54;97216.41;;;8.87;46.50
61324;BME280;47203;48.428;11.974;2023-02-01T02:18:08;97209.28;;;8.82;46.28
61324;BME280;47203;48.428;11.974;2023-02-01T02:20:30;97211.56;;;8.79;46.28
61324;BME280;47203;48.428;11.974;2023-02-01T02:22:54;97206.88;;;8.81;46.54
61324;BME280;47203;48.428;11.974;2023-02-01T02:27:54;97191.44;;;8.84;46.45
61324;BME280;47203;48.428;11.974;2023-02-01T02:30:47;97192.25;;;8.85;46.38
61324;BME280;47203;48.428;11.974;2023-02-01T02:35:43;97189.53;;;8.80;46.30
61324;BME280;47203;48.428;11.974;2023-02-01T02:37:55;97190.66;;;8.84;46.26
61324;BME280;47203;48.428;11.974;2023-02-01T02:40:07;97194.94;;;8.73;46.31
61324;BME280;47203;48.428;11.974;2023-02-01T02:42:24;97189.53;;;8.80;46.44
61324;BME280;47203;48.428;11.974;2023-02-01T02:44:47;97182.69;;;8.79;46.34
61324;BME280;47203;48.428;11.974;2023-02-01T02:47:11;97184.78;;;8.77;46.46
61324;BME280;47203;48.428;11.974;2023-02-01T02:49:35;97165.06;;;8.74;46.45
61324;BME280;47203;48.428;11.974;2023-02-01T02:51:46;97157.66;;;8.71;46.76
61324;BME280;47203;48.428;11.974;2023-02-01T02:54:11;97174.19;;;8.71;46.61
61324;BME280;47203;48.428;11.974;2023-02-01T02:56:29;97170.00;;;8.70;46.74
61324;BME280;47203;48.428;11.974;2023-02-01T02:58:47;97171.81;;;8.70;46.79
61324;BME280;47203;48.428;11.974;2023-02-01T03:01:06;97176.81;;;8.71;46.85
61324;BME280;47203;48.428;11.974;2023-02-01T03:03:23;97173.41;;;8.71;46.75
61324;BME280;47203;48.428;11.974;2023-02-01T03:05:43;97172.06;;;8.68;46.79
61324;BME280;47203;48.428;11.974;2023-02-01T03:07:57;97165.53;;;8.71;47.06
61324;BME280;47203;48.428;11.974;2023-02-01T03:10:10;97171.91;;;8.75;46.76
61324;BME280;47203;48.428;11.974;2023-02-01T03:12:17;97172.69;;;8.76;46.71
61324;BME280;47203;48.428;11.974;2023-02-01T03:14:37;97164.03;;;8.75;46.80
61324;BME280;47203;48.428;11.974;2023-02-01T03:16:49;97170.06;;;8.76;46.65
61324;BME280;47203;48.428;11.974;2023-02-01T03:18:57;97164.81;;;8.76;46.79
61324;BME280;47203;48.428;11.974;2023-02-01T03:21:09;97159.81;;;8.74;47.03
61324;BME280;47203;48.428;11.974;2023-02-01T03:23:20;97165.28;;;8.72;47.15
61324;BME280;47203;48.428;11.974;2023-02-01T03:25:29;97165.06;;;8.74;46.78
61324;BME280;47203;48.428;11.974;2023-02-01T03:27:39;97164.50;;;8.72;47.09
61324;BME280;47203;48.428;11.974;2023-02-01T03:29:48;97165.28;;;8.72;47.11
61324;BME280;47203;48.428;11.974;2023-02-01T03:31:55;97154.78;;;8.72;47.08
61324;BME280;47203;48.428;11.974;2023-02-01T03:34:00;97153.19;;;8.71;46.88
61324;BME280;47203;48.428;11.974;2023-02-01T03:36:15;97145.81;;;8.68;47.32
61324;BME280;47203;48.428;11.974;2023-02-01T03:38:30;97156.56;;;8.67;47.18
61324;BME280;47203;48.428;11.974;2023-02-01T03:40:39;97154.75;;;8.67;46.99
61324;BME280;47203;48.428;11.974;2023-02-01T03:42:49;97161.31;;;8.70;47.04
61324;BME280;47203;48.428;11.974;2023-02-01T03:45:01;97159.50;;;8.70;47.02
61324;BME280;47203;48.428;11.974;2023-02-01T03:47:12;97153.44;;;8.70;47.30
61324;BME280;47203;48.428;11.974;2023-02-01T03:49:21;97154.50;;;8.69;47.20
61324;BME280;47203;48.428;11.974;2023-02-01T03:51:28;97154.75;;;8.67;47.07
61324;BME280;47203;48.428;11.974;2023-02-01T03:53:38;97145.50;;;8.65;47.39
61324;BME280;47203;48.428;11.974;2023-02-01T03:55:48;97150.28;;;8.68;47.25
61324;BME280;47203;48.428;11.974;2023-02-01T03:57:58;97158.69;;;8.70;47.17
61324;BME280;47203;48.428;11.974;2023-02-01T04:00:07;97160.13;;;8.78;47.11
61324;BME280;47203;48.428;11.974;2023-02-01T04:02:16;97155.97;;;8.82;46.93
61324;BME280;47203;48.428;11.974;2023-02-01T04:04:21;97153.91;;;8.84;47.17
61324;BME280;47203;48.428;11.974;2023-02-01T04:06:28;97157.66;;;8.88;46.81
61324;BME280;47203;48.428;11.974;2023-02-01T04:08:39;97156.84;;;8.87;47.21
61324;BME280;47203;48.428;11.974;2023-02-01T04:10:43;97161.28;;;8.87;46.85
61324;BME280;47203;48.428;11.974;2023-02-01T04:12:48;97149.94;;;8.81;47.07
61324;BME280;47203;48.428;11.974;2023-02-01T04:14:53;97142.78;;;8.77;47.04
61324;BME280;47203;48.428;11.974;2023-02-01T04:16:57;97138.03;;;8.73;47.34
61324;BME280;47203;48.428;11.974;2023-02-01T04:19:02;97150.56;;;8.71;47.53
61324;BME280;47203;48.428;11.974;2023-02-01T04:21:07;97159.03;;;8.73;47.16
61324;BME280;47203;48.428;11.974;2023-02-01T04:23:12;97153.44;;;8.70;47.15
61324;BME280;47203;48.428;11.974;2023-02-01T04:25:20;97145.03;;;8.68;47.28
61324;BME280;47203;48.428;11.974;2023-02-01T04:27:26;97153.94;;;8.67;47.41
61324;BME280;47203;48.428;11.974;2023-02-01T04:29:30;97160.78;;;8.68;47.53
61324;BME280;47203;48.428;11.974;2023-02-01T04:31:35;97150.28;;;8.68;47.32
61324;BME280;47203;48.428;11.974;2023-02-01T04:33:40;97151.31;;;8.67;47.48
61324;BME280;47203;48.428;11.974;2023-02-01T04:35:45;97145.81;;;8.68;47.22
61324;BME280;47203;48.428;11.974;2023-02-01T04:37:50;97141.63;;;8.67;47.29
61324;BME280;47203;48.428;11.974;2023-02-01T04:39:54;97139.22;;;8.66;47.40
61324;BME280;47203;48.428;11.974;2023-02-01T04:42:02;97137.41;;;8.66;47.47
61324;BME280;47203;48.428;11.974;2023-02-01T04:44:09;97135.25;;;8.63;47.37
61324;BME280;47203;48.428;11.974;2023-02-01T04:46:18;97133.41;;;8.64;47.55
61324;BME280;47203;48.428;11.974;2023-02-01T04:48:22;97142.88;;;8.65;47.43
61324;BME280;47203;48.428;11.974;2023-02-01T04:50:27;97147.31;;;8.64;47.59
61324;BME280;47203;48.428;11.974;2023-02-01T04:52:32;97134.78;;;8.66;47.45
61324;BME280;47203;48.428;11.974;2023-02-01T04:54:37;97139.22;;;8.66;47.31
61324;BME280;47203;48.428;11.974;2023-02-01T04:56:42;97140.03;;;8.66;47.41
61324;BME280;47203;48.428;11.974;2023-02-01T04:58:49;97135.31;;;8.68;47.55
61324;BME280;47203;48.428;11.974;2023-02-01T05:00:54;97127.78;;;8.72;47.22
61324;BME280;47203;48.428;11.974;2023-02-01T05:02:59;97128.00;;;8.70;47.42
61324;BME280;47203;48.428;11.974;2023-02-01T05:05:05;97137.16;;;8.68;47.59
61324;BME280;47203;48.428;11.974;2023-02-01T05:07:09;97125.78;;;8.62;47.81
61324;BME280;47203;48.428;11.974;2023-02-01T05:09:14;97114.50;;;8.62;47.73
61324;BME280;47203;48.428;11.974;2023-02-01T05:11:19;97109.50;;;8.60;47.73
61324;BME280;47203;48.428;11.974;2023-02-01T05:13:36;97112.13;;;8.60;47.66
61324;BME280;47203;48.428;11.974;2023-02-01T05:15:55;97115.53;;;8.61;47.75
61324;BME280;47203;48.428;11.974;2023-02-01T05:18:00;97120.78;;;8.61;47.66
61324;BME280;47203;48.428;11.974;2023-02-01T05:20:06;97129.69;;;8.60;47.65
61324;BME280;47203;48.428;11.974;2023-02-01T05:22:11;97136.03;;;8.64;47.55
61324;BME280;47203;48.428;11.974;2023-02-01T05:24:16;97136.13;;;8.69;47.51
61324;BME280;47203;48.428;11.974;2023-02-01T05:26:24;97131.97;;;8.73;47.44
61324;BME280;47203;48.428;11.974;2023-02-01T05:28:29;97141.75;;;8.78;47.38
61324;BME280;47203;48.428;11.974;2023-02-01T05:30:33;97142.84;;;8.82;47.42
61324;BME280;47203;48.428;11.974;2023-02-01T05:32:45;97145.00;;;8.85;47.43
61324;BME280;47203;48.428;11.974;2023-02-01T05:34:50;97136.94;;;8.91;47.15
61324;BME280;47203;48.428;11.974;2023-02-01T05:36:55;97138.34;;;8.99;47.35
61324;BME280;47203;48.428;11.974;2023-02-01T05:38:59;97131.81;;;9.02;47.14
61324;BME280;47203;48.428;11.974;2023-02-01T05:41:04;97111.13;;;9.05;47.03
61324;BME280;47203;48.428;11.974;2023-02-01T05:43:09;97099.03;;;9.04;47.17
61324;BME280;47203;48.428;11.974;2023-02-01T05:45:14;97094.56;;;9.05;47.11
61324;BME280;47203;48.428;11.974;2023-02-01T05:47:18;97085.38;;;9.02;47.35
61324;BME280;47203;48.428;11.974;2023-02-01T05:49:26;97081.41;;;9.00;47.08
61324;BME280;47203;48.428;11.974;2023-02-01T05:51:30;97077.72;;;9.01;47.04
61324;BME280;47203;48.428;11.974;2023-02-01T05:53:35;97067.78;;;9.03;46.94
61324;BME280;47203;48.428;11.974;2023-02-01T05:55:41;97073.53;;;9.00;47.32
61324;BME280;47203;48.428;11.974;2023-02-01T05:57:46;97079.00;;;8.98;47.03
61324;BME280;47203;48.428;11.974;2023-02-01T05:59:51;97087.19;;;9.02;47.06
61324;BME280;47203;48.428;11.974;2023-02-01T06:01:56;97081.41;;;9.00;47.28
61324;BME280;47203;48.428;11.974;2023-02-01T06:04:00;97078.53;;;9.01;47.10
61324;BME280;47203;48.428;11.974;2023-02-01T06:06:08;97076.69;;;9.02;47.24
61324;BME280;47203;48.428;11.974;2023-02-01T06:08:13;97072.78;;;9.04;47.05
61324;BME280;47203;48.428;11.974;2023-02-01T06:10:19;97074.66;;;9.09;47.25
61324;BME280;47203;48.428;11.974;2023-02-01T06:12:25;97072.03;;;9.09;46.91
61324;BME280;47203;48.428;11.974;2023-02-01T06:14:29;97064.16;;;9.09;47.17
61324;BME280;47203;48.428;11.974;2023-02-01T06:16:34;97066.00;;;9.08;46.92
61324;BME280;47203;48.428;11.974;2023-02-01T06:18:39;97075.19;;;9.11;47.00
61324;BME280;47203;48.428;11.974;2023-02-01T06:20:43;97069.16;;;9.11;47.00
61324;BME280;47203;48.428;11.974;2023-02-01T06:22:51;97073.38;;;9.12;47.04
61324;BME280;47203;48.428;11.974;2023-02-01T06:24:55;97074.75;;;9.14;46.84
61324;BME280;47203;48.428;11.974;2023-02-01T06:27:00;97069.25;;;9.16;47.05
61324;BME280;47203;48.428;11.974;2023-02-01T06:29:05;97070.81;;;9.17;46.88
61324;BME280;47203;48.428;11.974;2023-02-01T06:31:10;97067.16;;;9.18;46.93
61324;BME280;47203;48.428;11.974;2023-02-01T06:33:15;97074.00;;;9.19;46.75
61324;BME280;47203;48.428;11.974;2023-02-01T06:35:20;97076.31;;;9.15;46.79
61324;BME280;47203;48.428;11.974;2023-02-01T06:37:28;97065.00;;;9.15;47.12
61324;BME280;47203;48.428;11.974;2023-02-01T06:39:36;97081.25;;;9.12;46.91
61324;BME280;47203;48.428;11.974;2023-02-01T06:41:41;97069.16;;;9.11;46.71
61324;BME280;47203;48.428;11.974;2023-02-01T06:43:46;97067.53;;;9.04;47.14
61324;BME280;47203;48.428;11.974;2023-02-01T06:45:51;97063.03;;;9.00;47.02
61324;BME280;47203;48.428;11.974;2023-02-01T06:47:58;97062.69;;;8.96;47.32
61324;BME280;47203;48.428;11.974;2023-02-01T06:50:03;97066.84;;;8.92;47.28
61324;BME280;47203;48.428;11.974;2023-02-01T06:52:09;97081.03;;;8.91;47.33
61324;BME280;47203;48.428;11.974;2023-02-01T06:54:14;97057.16;;;8.93;47.27
61324;BME280;47203;48.428;11.974;2023-02-01T06:56:21;97066.63;;;8.94;46.99
61324;BME280;47203;48.428;11.974;2023-02-01T06:58:28;97067.16;;;8.96;47.13
61324;BME280;47203;48.428;11.974;2023-02-01T07:00:33;97076.63;;;8.97;47.20
61324;BME280;47203;48.428;11.974;2023-02-01T07:02:38;97074.00;;;8.97;47.04
61324;BME280;47203;48.428;11.974;2023-02-01T07:04:43;97066.38;;;8.95;47.13
61324;BME280;47203;48.428;11.974;2023-02-01T07:06:47;97062.69;;;8.96;47.22
61324;BME280;47203;48.428;11.974;2023-02-01T07:08:52;97069.28;;;8.99;47.11
61324;BME280;47203;48.428;11.974;2023-02-01T07:11:01;97067.44;;;8.99;46.87
61324;BME280;47203;48.428;11.974;2023-02-01T07:13:09;97070.09;;;8.99;46.85
61324;BME280;47203;48.428;11.974;2023-02-01T07:15:14;97088.47;;;8.99;47.15
61324;BME280;47203;48.428;11.974;2023-02-01T07:17:19;97077.50;;;9.02;47.16
61324;BME280;47203;48.428;11.974;2023-02-01T07:19:24;97080.94;;;9.08;47.04
61324;BME280;47203;48.428;11.974;2023-02-01T07:21:28;97078.63;;;9.12;46.85
61324;BME280;47203;48.428;11.974;2023-02-01T07:23:33;97081.81;;;9.14;46.84
61324;BME280;47203;48.428;11.974;2023-02-01T07:25:38;97086.03;;;9.15;46.88
61324;BME280;47203;48.428;11.974;2023-02-01T07:27:43;97081.56;;;9.15;46.79
61324;BME280;47203;48.428;11.974;2023-02-01T07:29:50;97087.63;;;9.16;46.96
61324;BME280;47203;48.428;11.974;2023-02-01T07:31:57;97081.88;;;9.19;46.66
61324;BME280;47203;48.428;11.974;2023-02-01T07:34:02;97095.53;;;9.21;46.88
61324;BME280;47203;48.428;11.974;2023-02-01T07:36:10;97082.97;;;9.23;46.89
61324;BME280;47203;48.428;11.974;2023-02-01T07:38:15;97083.25;;;9.26;46.62
61324;BME280;47203;48.428;11.974;2023-02-01T07:40:21;97083.78;;;9.29;46.56
61324;BME280;47203;48.428;11.974;2023-02-01T07:42:30;97074.34;;;9.28;46.71
61324;BME280;47203;48.428;11.974;2023-02-01T07:44:35;97071.97;;;9.26;46.83
61324;BME280;47203;48.428;11.974;2023-02-01T07:46:43;97090.84;;;9.23;46.67
61324;BME280;47203;48.428;11.974;2023-02-01T07:48:48;97076.41;;;9.25;46.63
61324;BME280;47203;48.428;11.974;2023-02-01T07:50:59;97071.16;;;9.25;46.61
61324;BME280;47203;48.428;11.974;2023-02-01T07:53:04;97075.13;;;9.28;46.60
61324;BME280;47203;48.428;11.974;2023-02-01T07:55:09;97071.22;;;9.31;46.56
61324;BME280;47203;48.428;11.974;2023-02-01T07:57:14;97088.59;;;9.32;46.51
61324;BME280;47203;48.428;11.974;2023-02-01T07:59:19;97086.75;;;9.32;46.73
61324;BME280;47203;48.428;11.974;2023-02-01T08:01:25;97078.84;;;9.32;46.45
61324;BME280;47203;48.428;11.974;2023-02-01T08:03:30;97088.34;;;9.33;46.52
61324;BME280;47203;48.428;11.974;2023-02-01T08:05:35;97108.59;;;9.38;46.51
61324;BME280;47203;48.428;11.974;2023-02-01T08:07:41;97108.13;;;9.41;46.27
61324;BME280;47203;48.428;11.974;2023-02-01T08:09:45;97111.28;;;9.43;46.47
61324;BME280;47203;48.428;11.974;2023-02-01T08:11:50;97113.41;;;9.46;46.20
61324;BME280;47203;48.428;11.974;2023-02-01T08:13:55;97110.78;;;9.46;46.23
61324;BME280;47203;48.428;11.974;2023-02-01T08:16:05;97095.81;;;9.47;46.45
61324;BME280;47203;48.428;11.974;2023-02-01T08:18:10;97102.91;;;9.46;46.30
61324;BME280;47203;48.428;11.974;2023-02-01T08:20:21;97115.75;;;9.42;46.39
61324;BME280;47203;48.428;11.974;2023-02-01T08:22:31;97100.75;;;9.43;46.51
61324;BME280;47203;48.428;11.974;2023-02-01T08:24:36;97111.03;;;9.44;46.48
61324;BME280;47203;48.428;11.974;2023-02-01T08:26:43;97101.00;;;9.41;46.21
61324;BME280;47203;48.428;11.974;2023-02-01T08:28:50;97104.13;;;9.38;46.36
61324;BME280;47203;48.428;11.974;2023-02-01T08:30:55;97098.63;;;9.40;46.51
61324;BME280;47203;48.428;11.974;2023-02-01T08:33:00;97085.00;;;9.43;46.46
61324;BME280;47203;48.428;11.974;2023-02-01T08:35:05;97097.09;;;9.44;46.43
61324;BME280;47203;48.428;11.974;2023-02-01T08:37:12;97095.25;;;9.44;46.47
61324;BME280;47203;48.428;11.974;2023-02-01T08:39:17;97096.59;;;9.47;46.51
61324;BME280;47203;48.428;11.974;2023-02-01T08:41:24;97105.53;;;9.46;46.36
61324;BME280;47203;48.428;11.974;2023-02-01T08:43:32;97095.81;;;9.47;46.32
61324;BME280;47203;48.428;11.974;2023-02-01T08:45:37;97102.44;;;9.49;46.63
61324;BME280;47203;48.428;11.974;2023-02-01T08:47:42;97109.31;;;9.55;46.27
61324;BME280;47203;48.428;11.974;2023-02-01T08:49:48;97101.44;;;9.55;46.04
61324;BME280;47203;48.428;11.974;2023-02-01T08:51:53;97114.31;;;9.57;46.23
61324;BME280;47203;48.428;11.974;2023-02-01T08:54:07;97122.69;;;9.54;46.12
61324;BME280;47203;48.428;11.974;2023-02-01T08:56:13;97102.47;;;9.54;46.11
61324;BME280;47203;48.428;11.974;2023-02-01T08:58:18;97102.22;;;9.56;46.15
61324;BME280;47203;48.428;11.974;2023-02-01T09:00:23;97117.25;;;9.60;46.16
61324;BME280;47203;48.428;11.974;2023-02-01T09:02:28;97111.25;;;9.65;46.24
61324;BME280;47203;48.428;11.974;2023-02-01T09:04:33;97113.88;;;9.65;46.27
61324;BME280;47203;48.428;11.974;2023-02-01T09:06:40;97117.56;;;9.64;45.89
61324;BME280;47203;48.428;11.974;2023-02-01T09:08:45;97106.00;;;9.65;46.19
61324;BME280;47203;48.428;11.974;2023-02-01T09:10:52;97110.19;;;9.66;45.92
61324;BME280;47203;48.428;11.974;2023-02-01T09:12:57;97105.53;;;9.73;45.84
61324;BME280;47203;48.428;11.974;2023-02-01T09:15:03;97096.88;;;9.73;45.90
61324;BME280;47203;48.428;11.974;2023-02-01T09:17:08;97113.13;;;9.70;46.05
61324;BME280;47203;48.428;11.974;2023-02-01T09:19:15;97116.56;;;9.70;45.97
61324;BME280;47203;48.428;11.974;2023-02-01T09:21:27;97121.28;;;9.68;46.10
61324;BME280;47203;48.428;11.974;2023-02-01T09:23:32;97121.28;;;9.68;46.15
61324;BME280;47203;48.428;11.974;2023-02-01T09:25:37;97126.53;;;9.68;46.13
61324;BME280;47203;48.428;11.974;2023-02-01T09:27:45;97118.41;;;9.70;46.08
61324;BME280;47203;48.428;11.974;2023-02-01T09:29:50;97160.75;;;9.73;46.27
61324;BME280;47203;48.428;11.974;2023-02-01T09:31:55;97129.19;;;9.73;46.02
61324;BME280;47203;48.428;11.974;2023-02-01T09:34:05;97144.19;;;9.73;46.10
61324;BME280;47203;48.428;11.974;2023-02-01T09:36:10;97144.44;;;9.71;46.09
61324;BME280;47203;48.428;11.974;2023-02-01T09:38:15;97137.91;;;9.74;45.91
61324;BME280;47203;48.428;11.974;2023-02-01T09:40:20;97140.03;;;9.77;46.11
61324;BME280;47203;48.428;11.974;2023-02-01T09:42:46;97126.31;;;9.75;45.78
61324;BME280;47203;48.428;11.974;2023-02-01T09:45:06;97125.03;;;9.77;46.07
61324;BME280;47203;48.428;11.974;2023-02-01T09:47:16;97138.78;;;9.85;45.62
61324;BME280;47203;48.428;11.974;2023-02-01T09:49:27;97135.91;;;9.86;45.60
61324;BME280;47203;48.428;11.974;2023-02-01T09:51:36;97149.56;;;9.88;45.51
61324;BME280;47203;48.428;11.974;2023-02-01T09:53:44;97134.34;;;9.90;45.65
61324;BME280;47203;48.428;11.974;2023-02-01T09:55:55;97148.34;;;9.96;45.65
61324;BME280;47203;48.428;11.974;2023-02-01T09:58:06;97157.56;;;9.99;45.65
61324;BME280;47203;48.428;11.974;2023-02-01T10:00:18;97143.94;;;10.02;45.30
61324;BME280;47203;48.428;11.974;2023-02-01T10:02:27;97148.69;;;10.05;45.32
61324;BME280;47203;48.428;11.974;2023-02-01T10:04:32;97155.25;;;10.07;45.46
61324;BME280;47203;48.428;11.974;2023-02-01T10:06:47;97153.97;;;10.10;45.45
61324;BME280;47203;48.428;11.974;2023-02-01T10:09:09;97154.78;;;10.10;45.40
61324;BME280;47203;48.428;11.974;2023-02-01T10:11:25;97154.53;;;10.12;45.06
61324;BME280;47203;48.428;11.974;2023-02-01T10:13:44;97148.97;;;10.08;45.30
61324;BME280;47203;48.428;11.974;2023-02-01T10:16:04;97154.22;;;10.08;45.28
61324;BME280;47203;48.428;11.974;2023-02-01T10:18:28;97147.38;;;10.07;45.54
61324;BME280;47203;48.428;11.974;2023-02-01T10:20:45;97148.72;;;10.10;45.51
61324;BME280;47203;48.428;11.974;2023-02-01T10:23:01;97144.81;;;10.12;45.43
61324;BME280;47203;48.428;11.974;2023-02-01T10:25:32;97151.66;;;10.13;45.39
61324;BME280;47203;48.428;11.974;2023-02-01T10:27:41;97145.91;;;10.17;45.28
61324;BME280;47203;48.428;11.974;2023-02-01T10:29:53;97143.22;;;10.11;45.27
61324;BME280;47203;48.428;11.974;2023-02-01T10:31:58;97141.66;;;10.10;45.56
61324;BME280;47203;48.428;11.974;2023-02-01T10:34:11;97155.81;;;10.09;45.26
61324;BME280;47203;48.428;11.974;2023-02-01T10:36:22;97144.03;;;10.12;45.14
61324;BME280;47203;48.428;11.974;2023-02-01T10:38:32;97143.53;;;10.15;45.44
61324;BME280;47203;48.428;11.974;2023-02-01T10:40:37;97154.28;;;10.13;45.32
61324;BME280;47203;48.428;11.974;2023-02-01T10:42:43;97149.75;;;10.09;45.22
61324;BME280;47203;48.428;11.974;2023-02-01T10:44:51;97145.25;;;10.04;45.28
61324;BME280;47203;48.428;11.974;2023-02-01T10:46:58;97146.59;;;10.07;45.29
61324;BME280;47203;48.428;11.974;2023-02-01T10:49:04;97148.97;;;10.08;45.37
61324;BME280;47203;48.428;11.974;2023-02-01T10:51:14;97152.38;;;10.09;45.26
61324;BME280;47203;48.428;11.974;2023-02-01T10:53:24;97151.66;;;10.13;45.35
61324;BME280;47203;48.428;11.974;2023-02-01T10:55:37;97146.66;;;10.12;45.29
61324;BME280;47203;48.428;11.974;2023-02-01T10:57:55;97132.16;;;10.09;45.40
61324;BME280;47203;48.428;11.974;2023-02-01T11:00:19;97135.81;;;10.08;45.26
61324;BME280;47203;48.428;11.974;2023-02-01T11:02:27;97134.28;;;10.12;45.06
61324;BME280;47203;48.428;11.974;2023-02-01T11:04:34;97154.31;;;10.19;45.13
61324;BME280;47203;48.428;11.974;2023-02-01T11:06:40;97148.81;;;10.20;45.11
61324;BME280;47203;48.428;11.974;2023-02-01T11:08:48;97148.81;;;10.20;45.17
61324;BME280;47203;48.428;11.974;2023-02-01T11:10:58;97148.03;;;10.20;44.92
61324;BME280;47203;48.428;11.974;2023-02-01T11:13:04;97155.91;;;10.20;45.15
61324;BME280;47203;48.428;11.974;2023-02-01T11:15:27;97149.03;;;10.13;45.31
61324;BME280;47203;48.428;11.974;2023-02-01T11:17:34;97157.19;;;10.17;44.91
61324;BME280;47203;48.428;11.974;2023-02-01T11:19:44;97154.31;;;10.19;45.23
61324;BME280;47203;48.428;11.974;2023-02-01T11:21:50;97158.03;;;10.23;44.82
61324;BME280;47203;48.428;11.974;2023-02-01T11:24:00;97156.19;;;10.23;45.18
61324;BME280;47203;48.428;11.974;2023-02-01T11:26:10;97144.63;;;10.24;45.04